MET'MAP v2.0
soon released !

Expected late october,
this new version will be
more efficient, smarter,
and hosted on a brand new
server x3 powerfull...
...and still free !


Not compatible ?
Try the mobile version !

LOG IN : | Subscribe | Disclaimer | Who is Orbifly ? |
ICAO code :
Legend : VFR Marginal VFR IFR Intensive IFR Very Intensive IFR
Visi :
Ceiling :
>= 8 km
>= 3000ft
5 to 8 km
1000 to 3000 ft
1500m to 5 km
500 to 1000 ft
800 to 1500m
200 to 500 ft
< 800m
< 200 ft

METAR - EGNJ Humberside - 27 May 2020 05:47 UTC - Data Source NOAA   


- Airport Elevation : 121 ft
- IATA code : HUY
- No reported NOTAMs.


EGNJ - Humberside

Latest METAR recorded : 2015/08/11 07:50 EGNJ 110750Z 24005KT 9999 FEW040 15/12 Q1019
TAF TAF EGNJ
Valid from the 27 at 03:00 until the 27 at 12:00 UTC


270158Z 2703/2712 26004KT 9999 FEW040
PROB30
TEMPO 2703/2707 8000
BECMG 2709/2712 03010KT

Source NOAA
ATIS : +44 1652 682 020


MET'MAP, your aeronautical weather chart ! - Copyright ORBIFLY December 2007

Programming & Development : Alexandra Zaïnal
Co-Developer : Marc-Olivier Méhu
Technical & hardware support : Manuel Goepfert
Concept & Financing : Baudouin d'Aumeries